Paynesville, Missouri
Current Conditions -  °F | °C
As of 5:15 PM on Friday 19 Dec 2014 (Local Time) from KPPQ Reporting Station
Overcast Overcast  
Wind Chill:   Ceiling: 5000
Heat Index:   Visibility: 10mi
Dew Point: -2°   Wind: 3mph
Humidity: 80%   Direction: 50°NE
Pressure: 30.27"   Gusts: NA
Location:  39.3277°N, 90.9481°W
Report Text: KPPQ 192315Z AUTO 05003KT 10SM OVC050 01/M02 A3027 RMK AO2 T00101021
Loading
Personal Weather Stations






























Interactive Weather Map New forecast layout! Learn more

10-Day Weather Forecast

Advertisements
Track Severe Weather on mobile